Just Another Bike Race 2015

Saturday, August 15, 2015 9:59 AM (GMT-7) - Final results

Race info
Sport: Cycling - mtn cross-country
Location: Squamish, BC, Canada
Start type: Mass start
Racers: 119
Timed on: iPad
Timed with: Webscorer PRO 1.7
Updated: Saturday, August 15, 2015 6:54 PM (GMT-7)
Organized by: Test of Metal Inc.
Race website: www.testofmetal.com

Contact organizer

Use this form to send an email to the organizer.

Your name
Your email address
Confirm email address
Message to organizer
Send

Place Bib Racer name Affiliation Category Age Gender Finish time
1352Ramsden, BlakeWest Vancouver, BC - Steed Cycles / WORCA 20-29M 2:43:15.4--100%25.59%23.38%
2363Mitchell, DaveyNorth Vancouver, BC - Flowt, My Trusty Steed 30-39M 2:44:42.6+1:27.2+0.89%99.12%24.92%22.70%
3323Trevelyan, DarcyWhistler, BC - IBEX, Kinesiology With Majo 30-3939M 2:46:59.5+3:44.1+2.29%97.76%23.88%21.63%
4193Ivany, CarstenAbbotsford, BC - Team Giant Vancouver 30-3934M 2:47:43.5+4:28.1+2.74%97.34%23.55%21.28%
5245Mckay, NathanSquamish, BC 30-3937M 2:48:27.0+5:11.6+3.18%96.92%23.22%20.94%
6320Tolson, CraigChristchurch, New Zealand - None 30-3938M 2:49:21.0+6:05.6+3.73%96.40%22.81%20.52%
7299Russo, TedPort Moody, BC - Lapierre 50-5954M 2:50:59.3+7:43.9+4.74%95.48%22.06%19.75%
8213Kress, DwayneGaribaldi Highlands - Corsa Cycles 40-4944M 2:52:32.7+9:17.3+5.69%94.62%21.35%19.02%
9218Lareau, Jean-SebastienBrackendale, BC - Republic 30-3939M 2:52:44.3+9:28.9+5.81%94.51%21.27%18.93%
10351Wright, PaulNew Zealand 14-19M 2:54:27.2+11:11.8+6.86%93.58%20.48%18.12%
11357Johnston, NathanNew Zealand, BC 14-19M 2:54:42.1+11:26.7+7.01%93.45%20.37%18.01%
12268Orr, SheldonDelta, BC - Daryl Evans Racing 50-5954M 2:55:22.4+12:07.0+7.42%93.09%20.06%17.69%
13297Routley, TonyWhistler, BC - Team Whistler/Muscle Mlk 50-5959M 2:56:43.0+13:27.6+8.24%92.38%19.45%17.06%
14167Gordon, DavidNewtownards, BC - Toque Coaching 20-29M 2:59:11.6+15:56.2+9.76%91.11%18.32%15.90%
15345Slykerman, DerekPort Coquitlam, BC - Cahilty Racing 40-49M 3:00:32.4+17:17.0+10.59%90.43%17.71%15.27%
16364Alleyn, ScottKimberley, BC - Norco/ Kootenay Mountain Works 20-29M 3:00:59.9+17:44.5+10.87%90.20%17.50%15.05%
17192Issel, BradWhite Rock - Daryl Evans 40-4943M 3:01:03.5+17:48.1+10.90%90.17%17.47%15.02%
18191Hunt, BrendanSquamish, BC 30-39M 3:01:44.1+18:28.7+11.32%89.83%17.16%14.71%
19279Phoenix, RobBrackendale, BC - Corsa Cycles 40-4948M 3:02:05.8+18:50.4+11.54%89.65%17.00%14.54%
20205Kinney, MichaelBrackendale, BC 30-39M 3:02:49.0+19:33.6+11.98%89.30%16.67%14.20%
21146Drown, MattVancouver, BC - Daryl-Evans Racing, Schwalbe 40-4940M 3:03:52.1+20:36.7+12.63%88.79%16.19%13.70%
22358Bradshaw, TomNew Zealand - Yeti NZ 20-29M 3:04:43.4+21:28.0+13.15%88.38%15.80%13.30%
23287Reith, AustinWhistler, BC 14-1918M 3:06:46.4+23:31.0+14.40%87.41%14.87%12.34%
24356Karu, KalleVancouver, BC 40-49M 3:07:04.5+23:49.1+14.59%87.27%14.73%12.20%
25263Newsome, RyanPort Moody - Giant Vancouver 40-4943M 3:07:36.8+24:21.4+14.92%87.02%14.49%11.95%
26139Dawson, ZoeSquamish, BC - Republic Bikes 20-2929F 3:07:53.6+24:38.2+15.09%86.89%14.36%11.82%
27286Reed, MikeSquamish, BC 60-6960M 3:09:55.8+26:40.4+16.34%85.96%13.43%10.86%
28339Wyllie, StuartNorth Vancouver, BC 40-4941M 3:10:01.4+26:46.0+16.40%85.91%13.39%10.82%
29343Evans, TerryBrackendale, BC 30-39M 3:11:30.7+28:15.3+17.31%85.25%12.71%10.12%
30258Nelson, AndrewEast Van, BC - West Coast Cycling 30-3936M 3:16:13.6+32:58.2+20.20%83.20%10.56%7.90%
31103Bakker, ColinSquamish, BC 30-39M 3:16:22.3+33:06.9+20.28%83.14%10.49%7.84%
32283Quiring, AdamSquamish, BC 30-3930M 3:16:29.3+33:13.9+20.36%83.09%10.44%7.78%
33175Haldenby, MarkSquamish, BC - Corsa 40-4944M 3:17:24.3+34:08.9+20.92%82.70%10.02%7.35%
34169Gould, MatthewLynn Valley, BC - NSMBL 14-1917M 3:17:25.1+34:09.7+20.93%82.70%10.02%7.35%
35190Humphries, RichardMaplr Ridge, BC - Maple Ridge Cycle 40-4949M 3:20:20.6+37:05.2+22.72%81.49%8.68%5.97%
36239Matthews, GregVancouver, BC 20-2928M 3:20:23.0+37:07.6+22.74%81.47%8.66%5.95%
37131Clement, BasseVancouver, BC - Mighty Riders 40-4942M 3:21:34.7+38:19.3+23.47%80.99%8.12%5.39%
38327Verner, HunterSquamish, BC - Team Squamish/Cycling BC 14-19M 3:22:57.0+39:41.6+24.31%80.44%7.49%4.75%
39346Etienne, DeanDelta - South Delta Rider 40-49M 3:23:46.8+40:31.4+24.82%80.11%7.12%4.36%
40204Kilpatrick, AngusVancouver, BC 20-2925M 3:25:36.9+42:21.5+25.95%79.40%6.28%3.50%
41194Jamieson, ElliotWhite Rock, BC 14-1914M 3:25:50.2+42:34.8+26.08%79.31%6.18%3.39%
42168Gould, BartLynn Valley, BC - Steed Cycle 50-5952M 3:27:15.8+44:00.4+26.96%78.77%5.53%2.72%
43133Craig, PaulPitt Meadows, BC - Team Giant Vancouver 40-4949M 3:27:48.2+44:32.8+27.29%78.56%5.28%2.47%
44303Scott, CodyNorth Vancouver - EV/Devo P/B Catalyst Kinetics 14-19M 3:27:50.0+44:34.6+27.30%78.55%5.27%2.46%
45142Dew, MichaelVancouver, BC 40-49M 3:28:29.5+45:14.1+27.71%78.30%4.97%2.15%
46126Choquette, ChrisNorth Vancouver, BC 30-3938M 3:30:34.8+47:19.4+28.99%77.53%4.02%1.17%
47362Thomson, BrandonSquamish, BC - Glotman Simpson 30-39M 3:30:46.0+47:30.6+29.10%77.46%3.93%1.08%
48344Uruski, StevenChilliwack, BC - Steven Uruski Yard Maintenance 40-49M 3:32:14.4+48:59.0+30.00%76.92%3.26%0.39%
49223Lee, RickGaribaldi Highlands, BC 50-5954M 3:33:53.9+50:38.5+31.02%76.32%2.50%-0.39%
50244Mcinerney, KathrynKelowna, BC - Balance Point Racing 20-2928F 3:34:16.8+51:01.4+31.25%76.19%2.33%-0.57%
51296Roulston, DavidSquamish, BC 30-3933M 3:36:58.0+53:42.6+32.90%75.25%1.11%-1.83%
52237Marshall, CraigCalgary, AB - Deadgoat Racing 40-4949M 3:37:50.9+54:35.5+33.44%74.94%0.70%-2.24%
53353Scott, OwenNorth Vancouver, BC - Steed Cycles 40-49M 3:37:56.2+54:40.8+33.49%74.91%0.66%-2.28%
54224Lehton, DanCourtenay, BC - Trail Bicycles 40-49M 3:40:02.6+56:47.2+34.78%74.19%-0.30%-3.27%
55254Moser, StefanNorth Vancouver, BC 30-39M 3:40:23.0+57:07.6+34.99%74.08%-0.45%-3.43%
56261Neubeck, DavidBellingham, WA - Fanatik Bike Co. Cycling Team 40-4944M 3:42:50.2+59:34.8+36.49%73.26%-1.57%-4.58%
57220Lawson, JasonNorth Vancouver, BC 40-4940M 3:42:50.5+59:35.1+36.50%73.26%-1.57%-4.59%
58360Towert, DavidRoberts Creek 50-59M 3:43:27.5+1:00:12.1+36.88%73.06%-1.85%-4.88%
59349Buck, SeanSquamish, BC 40-49M 3:45:08.6+1:01:53.2+37.91%72.51%-2.62%-5.67%
60295Rothengatter, MikeCoquitlam, BC - Team Giant Vancouver 20-29M 3:45:40.8+1:02:25.4+38.24%72.34%-2.87%-5.92%
61337Wolfe, MeganVancouver, BC 30-3931F 3:45:54.6+1:02:39.2+38.38%72.27%-2.97%-6.03%
62264Nicholson, JayJasper, AB 30-39M 3:46:58.8+1:03:43.4+39.03%71.93%-3.46%-6.53%
63198Jones, HuwWhistler, BC 30-39M 3:47:14.5+1:03:59.1+39.19%71.84%-3.58%-6.65%
64100Aaboe, MadsVancouver, BC - Ultrafit Bootcamp 30-3935M 3:48:09.2+1:04:53.8+39.75%71.56%-3.99%-7.08%
65164Gloag, NathanNorth Vancouver, BC 30-3935M 3:49:49.0+1:06:33.6+40.77%71.04%-4.75%-7.86%
66231Macdonald, KelseyPitt Meadows, BC - BOC Racing 14-1919F 3:50:57.1+1:07:41.7+41.47%70.69%-5.27%-8.39%
67107Bliss, DylanNorth Vancouver, BC - Todd Racing 30-39M 3:51:04.8+1:07:49.4+41.54%70.65%-5.33%-8.45%
68333Werner, JoelVancouver, BC 40-4941M 3:52:51.7+1:09:36.3+42.64%70.11%-6.14%-9.29%
69342Power, EvanValleycliffe, BC 30-39M 3:53:42.6+1:10:27.2+43.15%69.85%-6.53%-9.69%
70130Clarkson, AaronVancouver, BC 30-3932M 3:55:10.4+1:11:55.0+44.05%69.42%-7.19%-10.37%
71234Magnusson, DavidPort Coquitlam, BC - A.N.A. 40-4949M 3:55:26.9+1:12:11.5+44.22%69.34%-7.32%-10.50%
72235Manicke, HeidiNorth Vancouver, BC - Liv Giant/Giant Vancouver 20-2928F 3:56:08.8+1:12:53.4+44.65%69.13%-7.64%-10.83%
73108Bodie, ErnieWest Vancouver, BC 60-6961M 3:58:56.4+1:15:41.0+46.36%68.33%-8.91%-12.14%
74260Nelson, MikeSquamish, BC 60-6960M 4:05:58.4+1:22:43.0+50.67%66.37%-12.12%-15.44%
75262Neubeck, HannahBellingham, WA - Trailhead Racing 30-3935F 4:07:29.7+1:24:14.3+51.60%65.96%-12.81%-16.16%
76165Goodman, MichaelVancouver, BC - Glotman Simpson Cycling 30-39M 4:07:38.5+1:24:23.1+51.69%65.92%-12.88%-16.23%
77222Lee, DavidNorth Vancouver, BC 20-29M 4:15:05.8+1:31:50.4+56.25%64.00%-16.27%-19.72%
78355Bishop, EmmaWhistler, BC 30-39F 4:15:38.8+1:32:23.4+56.59%63.86%-16.52%-19.98%
79210Kobylanski, KenSurrey, BC - Teamme 40-4949M 4:16:05.4+1:32:50.0+56.86%63.75%-16.73%-20.19%
80341Parr, PipSquamish, BC 40-49F 4:17:09.3+1:33:53.9+57.52%63.49%-17.21%-20.69%
81252Mier, PaulLake Country - Lake Country Cycle 60-6968M 4:18:18.8+1:35:03.4+58.23%63.20%-17.74%-21.23%
82199Jones, TylerVancouver, BC 20-2924M 4:23:11.1+1:39:55.7+61.21%62.03%-19.96%-23.52%
83338Woods, GeraldSquamish, BC - SORCA 60-6961M 4:25:47.1+1:42:31.7+62.80%61.42%-21.15%-24.74%
84246Mcmillan, BridgetChristchurch, New Zealand - None 50-5950F 4:31:36.5+1:48:21.1+66.37%60.11%-23.80%-27.47%
85340Yip, GeeVancouver, BC 40-4945M 4:32:49.7+1:49:34.3+67.12%59.84%-24.36%-28.05%
86225Letchford, RyanSquamish, BC 40-4942M 4:38:07.1+1:54:51.7+70.36%58.70%-26.77%-30.53%
87257Napier, ScottSquamish, BC 40-4940M 4:42:35.2+1:59:19.8+73.09%57.77%-28.80%-32.63%
88209Knudsen, ColinBurnaby, BC 30-3932M 4:42:51.7+1:59:36.3+73.26%57.72%-28.93%-32.76%
89113Boulton, AndrewVancouver, BC - Twigg & Barry Fly Fishing Outfitters 30-39M 4:45:02.3+2:01:46.9+74.60%57.28%-29.92%-33.78%
90280Piper, MichaelPort Moody, BC 40-4942M 4:45:02.9+2:01:47.5+74.60%57.27%-29.93%-33.78%
91203Ketch, JasonGaribaldi Highlands, BC 30-39M 4:45:27.7+2:02:12.3+74.85%57.19%-30.11%-33.98%
92226Little, ChristineNorth Vancouver, BC 40-49F 4:48:33.9+2:05:18.5+76.76%56.58%-31.53%-35.43%
93129Cirelli, FelixSquamish, BC 40-4948M 5:05:17.8+2:22:02.4+87.00%53.47%-39.16%-43.29%
94221Leahy, ShaunSquamish - Double Shutter Images 30-3935M 5:10:30.9+2:27:15.5+90.20%52.58%-41.53%-45.73%
95350Shier, PatrickNorth Vancouver, BC - Grouse Mountain Ski Patrol 20-29M 5:29:49.3+2:46:33.9+102.03%49.50%-50.33%-54.80%
96117Busby, AnthonyVancouver, BC 30-39M 5:32:38.3+2:49:22.9+103.75%49.08%-51.62%-56.12%
-111Bolton-Maggs, EmlynVancouver, BC - Simpson-Glotman 30-3937M DNF-----
-112Boreen, SheldonVancouver, BC - Daryl Evans Racing 50-5951M DNF-----
-121Capobianco, JamesNorth Vancouver, BC - N/A 40-4947M DNF-----
-127Christie, ChrisGaribaldi Highlands, BC - MEC-Prima Bars-Dissent Labsw 40-4946M DNF-----
-136Curson, ConnorVancouver, BC - N/A 30-3934M DNF-----
-144Disney, JDBrackendale - Alpine Hand Clinic/Tantalus Bike Shop 30-39M DNF-----
-158Flood, ChrisVancouver, BC 30-3938M DNF-----
-172Gray, KeiSquamish, BC - Team Squamish 14-19F DNF-----
-180Henning, SorshaSquamish - Team Squamish 14-19F DNF-----
-188Hoskin, MichaelaGaribaldi Highlands, BC - Team Squamish 14-19F DNF-----
-189Hui, WylieRichmond, BC - Kits Energy 40-49M DNF-----
-208Kleban, NickGaribaldi Highlands, BC - Team Squamish 14-19M DNF-----
-215Lafreniere, KailaWhistler, BC 14-19F DNF-----
-228Long, JuliaWhistler, BC - Summit Sports 14-1916F DNF-----
-248Mell, ParkerSquamish, BC - Team Squamish 14-19M DNF-----
-274Patterson, ShaneNorth Vancouver, BC - Cycling BC 14-1916M DNF-----
-328Verner, JhettSquamish, BC - Team Squamish 14-19M DNF-----
-329Verner, RhysSquamish, BC - Team Squamish/Kona 14-19M DNF-----
-331Webb, JustinWest Vancouver - Zimich Coaching 50-5952M DNF-----
-336Wittenberg, MilaWhistler, BC 14-1914F DNF-----
-347Jones, HoldenSquamish - Team Squamish 14-19M DNF-----
-359Fielding, CameronSquamish, BC - Team Squamish 14-19M DNF-----
-361Capobianco, OliverNorth Vanvouver, BC 14-19M DNF-----